sensor_id;sensor_type;location;lat;lon;timestamp;P1;durP1;ratioP1;P2;durP2;ratioP2
2011;SDS011;1009;51.436;6.972;2023-05-10T00:00:55;7.50;;;4.53;;
2011;SDS011;1009;51.436;6.972;2023-05-10T00:03:22;9.40;;;4.67;;
2011;SDS011;1009;51.436;6.972;2023-05-10T00:05:48;9.10;;;5.33;;
2011;SDS011;1009;51.436;6.972;2023-05-10T00:08:15;7.10;;;4.30;;
2011;SDS011;1009;51.436;6.972;2023-05-10T00:10:42;10.67;;;5.27;;
2011;SDS011;1009;51.436;6.972;2023-05-10T00:13:10;8.20;;;5.10;;
2011;SDS011;1009;51.436;6.972;2023-05-10T00:15:37;9.90;;;5.30;;
2011;SDS011;1009;51.436;6.972;2023-05-10T00:18:03;9.10;;;5.40;;
2011;SDS011;1009;51.436;6.972;2023-05-10T00:20:30;10.03;;;5.60;;
2011;SDS011;1009;51.436;6.972;2023-05-10T00:22:57;11.97;;;6.23;;
2011;SDS011;1009;51.436;6.972;2023-05-10T00:25:24;8.60;;;5.40;;
2011;SDS011;1009;51.436;6.972;2023-05-10T00:27:53;9.73;;;6.17;;
2011;SDS011;1009;51.436;6.972;2023-05-10T00:30:33;12.40;;;6.60;;
2011;SDS011;1009;51.436;6.972;2023-05-10T00:33:00;11.97;;;6.50;;
2011;SDS011;1009;51.436;6.972;2023-05-10T00:35:27;14.20;;;6.90;;
2011;SDS011;1009;51.436;6.972;2023-05-10T00:37:54;11.83;;;7.00;;
2011;SDS011;1009;51.436;6.972;2023-05-10T00:40:21;13.33;;;6.60;;
2011;SDS011;1009;51.436;6.972;2023-05-10T00:42:59;11.90;;;5.90;;
2011;SDS011;1009;51.436;6.972;2023-05-10T00:45:26;11.40;;;6.33;;
2011;SDS011;1009;51.436;6.972;2023-05-10T00:47:54;11.27;;;7.20;;
2011;SDS011;1009;51.436;6.972;2023-05-10T00:50:21;12.47;;;7.57;;
2011;SDS011;1009;51.436;6.972;2023-05-10T00:52:48;10.67;;;7.20;;
2011;SDS011;1009;51.436;6.972;2023-05-10T00:55:15;11.10;;;7.20;;
2011;SDS011;1009;51.436;6.972;2023-05-10T00:57:45;14.27;;;8.27;;
2011;SDS011;1009;51.436;6.972;2023-05-10T01:00:13;17.27;;;9.47;;
2011;SDS011;1009;51.436;6.972;2023-05-10T01:02:43;22.30;;;9.73;;
2011;SDS011;1009;51.436;6.972;2023-05-10T01:05:11;19.10;;;10.00;;
2011;SDS011;1009;51.436;6.972;2023-05-10T01:07:38;20.03;;;11.17;;
2011;SDS011;1009;51.436;6.972;2023-05-10T01:10:06;17.90;;;9.87;;
2011;SDS011;1009;51.436;6.972;2023-05-10T01:12:34;16.33;;;9.20;;
2011;SDS011;1009;51.436;6.972;2023-05-10T01:15:03;16.50;;;9.40;;
2011;SDS011;1009;51.436;6.972;2023-05-10T01:17:31;17.60;;;9.60;;
2011;SDS011;1009;51.436;6.972;2023-05-10T01:19:59;18.90;;;9.13;;
2011;SDS011;1009;51.436;6.972;2023-05-10T01:22:33;16.17;;;9.40;;
2011;SDS011;1009;51.436;6.972;2023-05-10T01:25:19;17.77;;;11.03;;
2011;SDS011;1009;51.436;6.972;2023-05-10T01:28:11;18.73;;;10.00;;
2011;SDS011;1009;51.436;6.972;2023-05-10T01:31:06;22.03;;;10.60;;
2011;SDS011;1009;51.436;6.972;2023-05-10T01:33:46;22.33;;;11.00;;
2011;SDS011;1009;51.436;6.972;2023-05-10T01:36:23;17.40;;;10.10;;
2011;SDS011;1009;51.436;6.972;2023-05-10T01:38:55;19.67;;;11.07;;
2011;SDS011;1009;51.436;6.972;2023-05-10T01:41:28;16.47;;;10.23;;
2011;SDS011;1009;51.436;6.972;2023-05-10T01:44:07;19.30;;;11.23;;
2011;SDS011;1009;51.436;6.972;2023-05-10T01:46:40;18.10;;;9.77;;
2011;SDS011;1009;51.436;6.972;2023-05-10T01:49:08;16.87;;;10.50;;
2011;SDS011;1009;51.436;6.972;2023-05-10T01:51:38;16.27;;;9.63;;
2011;SDS011;1009;51.436;6.972;2023-05-10T01:54:08;17.00;;;10.40;;
2011;SDS011;1009;51.436;6.972;2023-05-10T01:56:37;15.40;;;9.90;;
2011;SDS011;1009;51.436;6.972;2023-05-10T01:59:08;22.63;;;9.50;;
2011;SDS011;1009;51.436;6.972;2023-05-10T02:01:39;19.40;;;10.73;;
2011;SDS011;1009;51.436;6.972;2023-05-10T02:04:08;18.00;;;10.33;;
2011;SDS011;1009;51.436;6.972;2023-05-10T02:06:37;17.80;;;9.97;;
2011;SDS011;1009;51.436;6.972;2023-05-10T02:09:05;14.60;;;8.30;;
2011;SDS011;1009;51.436;6.972;2023-05-10T02:11:34;19.17;;;9.37;;
2011;SDS011;1009;51.436;6.972;2023-05-10T02:14:03;16.13;;;9.70;;
2011;SDS011;1009;51.436;6.972;2023-05-10T02:16:33;19.00;;;9.80;;
2011;SDS011;1009;51.436;6.972;2023-05-10T02:19:02;13.47;;;9.17;;
2011;SDS011;1009;51.436;6.972;2023-05-10T02:21:31;18.53;;;9.63;;
2011;SDS011;1009;51.436;6.972;2023-05-10T02:23:59;24.90;;;11.10;;
2011;SDS011;1009;51.436;6.972;2023-05-10T02:26:33;12.73;;;8.50;;
2011;SDS011;1009;51.436;6.972;2023-05-10T02:29:02;18.67;;;8.80;;
2011;SDS011;1009;51.436;6.972;2023-05-10T02:31:31;16.80;;;8.97;;
2011;SDS011;1009;51.436;6.972;2023-05-10T02:33:59;18.00;;;8.63;;
2011;SDS011;1009;51.436;6.972;2023-05-10T02:36:27;15.57;;;9.80;;
2011;SDS011;1009;51.436;6.972;2023-05-10T02:38:59;23.60;;;9.70;;
2011;SDS011;1009;51.436;6.972;2023-05-10T02:41:28;20.13;;;10.80;;
2011;SDS011;1009;51.436;6.972;2023-05-10T02:43:57;18.87;;;10.20;;
2011;SDS011;1009;51.436;6.972;2023-05-10T02:46:27;16.70;;;9.60;;
2011;SDS011;1009;51.436;6.972;2023-05-10T02:48:54;18.07;;;9.80;;
2011;SDS011;1009;51.436;6.972;2023-05-10T02:51:21;19.50;;;11.77;;
2011;SDS011;1009;51.436;6.972;2023-05-10T02:53:53;16.60;;;9.57;;
2011;SDS011;1009;51.436;6.972;2023-05-10T02:56:23;17.77;;;10.00;;
2011;SDS011;1009;51.436;6.972;2023-05-10T02:58:53;16.47;;;10.20;;
2011;SDS011;1009;51.436;6.972;2023-05-10T03:01:19;15.90;;;9.87;;
2011;SDS011;1009;51.436;6.972;2023-05-10T03:03:46;18.17;;;9.30;;
2011;SDS011;1009;51.436;6.972;2023-05-10T03:06:13;17.30;;;9.30;;
2011;SDS011;1009;51.436;6.972;2023-05-10T03:08:41;18.67;;;9.60;;
2011;SDS011;1009;51.436;6.972;2023-05-10T03:11:26;16.33;;;8.77;;
2011;SDS011;1009;51.436;6.972;2023-05-10T03:14:04;14.60;;;7.87;;
2011;SDS011;1009;51.436;6.972;2023-05-10T03:16:39;12.37;;;7.50;;
2011;SDS011;1009;51.436;6.972;2023-05-10T03:19:12;14.93;;;7.83;;
2011;SDS011;1009;51.436;6.972;2023-05-10T03:21:44;16.77;;;9.17;;
2011;SDS011;1009;51.436;6.972;2023-05-10T03:24:16;14.70;;;8.10;;
2011;SDS011;1009;51.436;6.972;2023-05-10T03:26:47;19.40;;;8.70;;
2011;SDS011;1009;51.436;6.972;2023-05-10T03:29:15;15.10;;;7.70;;
2011;SDS011;1009;51.436;6.972;2023-05-10T03:31:43;13.57;;;7.20;;
2011;SDS011;1009;51.436;6.972;2023-05-10T03:34:12;15.20;;;8.57;;
2011;SDS011;1009;51.436;6.972;2023-05-10T03:36:39;15.27;;;8.23;;
2011;SDS011;1009;51.436;6.972;2023-05-10T03:39:06;16.30;;;7.90;;
2011;SDS011;1009;51.436;6.972;2023-05-10T03:41:33;12.63;;;8.10;;
2011;SDS011;1009;51.436;6.972;2023-05-10T03:44:01;16.00;;;9.23;;
2011;SDS011;1009;51.436;6.972;2023-05-10T03:46:28;14.90;;;8.33;;
2011;SDS011;1009;51.436;6.972;2023-05-10T03:48:54;15.77;;;8.93;;
2011;SDS011;1009;51.436;6.972;2023-05-10T03:51:21;17.47;;;8.77;;
2011;SDS011;1009;51.436;6.972;2023-05-10T03:53:49;14.30;;;8.30;;
2011;SDS011;1009;51.436;6.972;2023-05-10T03:56:15;17.77;;;7.93;;
2011;SDS011;1009;51.436;6.972;2023-05-10T03:58:42;17.57;;;9.83;;
2011;SDS011;1009;51.436;6.972;2023-05-10T04:01:11;21.00;;;9.07;;
2011;SDS011;1009;51.436;6.972;2023-05-10T04:03:37;16.63;;;10.03;;
2011;SDS011;1009;51.436;6.972;2023-05-10T04:06:04;16.30;;;9.77;;
2011;SDS011;1009;51.436;6.972;2023-05-10T04:08:39;20.10;;;10.70;;
2011;SDS011;1009;51.436;6.972;2023-05-10T04:11:06;21.50;;;9.37;;
2011;SDS011;1009;51.436;6.972;2023-05-10T04:13:34;20.33;;;10.00;;
2011;SDS011;1009;51.436;6.972;2023-05-10T04:16:01;23.80;;;10.43;;
2011;SDS011;1009;51.436;6.972;2023-05-10T04:18:30;22.93;;;12.60;;
2011;SDS011;1009;51.436;6.972;2023-05-10T04:20:57;21.57;;;11.10;;
2011;SDS011;1009;51.436;6.972;2023-05-10T04:23:24;21.27;;;11.60;;
2011;SDS011;1009;51.436;6.972;2023-05-10T04:25:51;26.00;;;12.60;;
2011;SDS011;1009;51.436;6.972;2023-05-10T04:28:18;22.77;;;12.37;;
2011;SDS011;1009;51.436;6.972;2023-05-10T04:30:45;21.70;;;12.13;;
2011;SDS011;1009;51.436;6.972;2023-05-10T04:33:12;19.10;;;10.53;;
2011;SDS011;1009;51.436;6.972;2023-05-10T04:35:40;23.17;;;11.93;;
2011;SDS011;1009;51.436;6.972;2023-05-10T04:38:07;21.80;;;11.13;;
2011;SDS011;1009;51.436;6.972;2023-05-10T04:40:34;22.37;;;11.93;;
2011;SDS011;1009;51.436;6.972;2023-05-10T04:43:00;24.07;;;12.30;;
2011;SDS011;1009;51.436;6.972;2023-05-10T04:45:27;25.33;;;12.60;;
2011;SDS011;1009;51.436;6.972;2023-05-10T04:47:54;24.33;;;12.53;;
2011;SDS011;1009;51.436;6.972;2023-05-10T04:50:20;23.60;;;12.17;;
2011;SDS011;1009;51.436;6.972;2023-05-10T04:52:48;23.37;;;11.87;;
2011;SDS011;1009;51.436;6.972;2023-05-10T04:55:15;31.83;;;12.37;;
2011;SDS011;1009;51.436;6.972;2023-05-10T04:57:42;25.33;;;11.40;;
2011;SDS011;1009;51.436;6.972;2023-05-10T05:00:10;26.17;;;13.67;;
2011;SDS011;1009;51.436;6.972;2023-05-10T05:02:37;24.13;;;13.03;;
2011;SDS011;1009;51.436;6.972;2023-05-10T05:05:04;27.73;;;14.07;;
2011;SDS011;1009;51.436;6.972;2023-05-10T05:07:34;30.47;;;13.90;;
2011;SDS011;1009;51.436;6.972;2023-05-10T05:10:02;26.67;;;12.93;;
2011;SDS011;1009;51.436;6.972;2023-05-10T05:12:29;29.37;;;13.97;;
2011;SDS011;1009;51.436;6.972;2023-05-10T05:14:56;28.27;;;13.37;;
2011;SDS011;1009;51.436;6.972;2023-05-10T05:17:22;26.20;;;13.00;;
2011;SDS011;1009;51.436;6.972;2023-05-10T05:19:49;31.27;;;14.93;;
2011;SDS011;1009;51.436;6.972;2023-05-10T05:22:16;26.53;;;14.57;;
2011;SDS011;1009;51.436;6.972;2023-05-10T05:24:44;29.97;;;14.47;;
2011;SDS011;1009;51.436;6.972;2023-05-10T05:27:12;30.73;;;14.30;;
2011;SDS011;1009;51.436;6.972;2023-05-10T05:29:39;29.73;;;14.20;;
2011;SDS011;1009;51.436;6.972;2023-05-10T05:32:06;29.43;;;15.33;;
2011;SDS011;1009;51.436;6.972;2023-05-10T05:34:33;25.60;;;14.17;;
2011;SDS011;1009;51.436;6.972;2023-05-10T05:37:00;30.50;;;14.77;;
2011;SDS011;1009;51.436;6.972;2023-05-10T05:39:26;25.20;;;14.17;;
2011;SDS011;1009;51.436;6.972;2023-05-10T05:41:53;28.30;;;14.80;;
2011;SDS011;1009;51.436;6.972;2023-05-10T05:44:21;26.20;;;13.73;;
2011;SDS011;1009;51.436;6.972;2023-05-10T05:46:48;26.53;;;13.53;;
2011;SDS011;1009;51.436;6.972;2023-05-10T05:49:15;27.00;;;15.00;;
2011;SDS011;1009;51.436;6.972;2023-05-10T05:51:42;31.80;;;14.60;;
2011;SDS011;1009;51.436;6.972;2023-05-10T05:54:09;29.33;;;15.23;;
2011;SDS011;1009;51.436;6.972;2023-05-10T05:56:36;31.37;;;14.83;;
2011;SDS011;1009;51.436;6.972;2023-05-10T05:59:05;29.03;;;14.80;;
2011;SDS011;1009;51.436;6.972;2023-05-10T06:01:33;31.30;;;14.23;;
2011;SDS011;1009;51.436;6.972;2023-05-10T06:04:00;27.13;;;15.00;;
2011;SDS011;1009;51.436;6.972;2023-05-10T06:06:27;31.33;;;15.53;;
2011;SDS011;1009;51.436;6.972;2023-05-10T06:08:54;29.67;;;15.10;;
2011;SDS011;1009;51.436;6.972;2023-05-10T06:11:21;28.27;;;15.27;;
2011;SDS011;1009;51.436;6.972;2023-05-10T06:13:47;40.30;;;15.50;;
2011;SDS011;1009;51.436;6.972;2023-05-10T06:16:14;30.67;;;16.00;;
2011;SDS011;1009;51.436;6.972;2023-05-10T06:18:42;26.70;;;14.43;;
2011;SDS011;1009;51.436;6.972;2023-05-10T06:21:09;32.67;;;14.60;;
2011;SDS011;1009;51.436;6.972;2023-05-10T06:23:35;27.77;;;12.80;;
2011;SDS011;1009;51.436;6.972;2023-05-10T06:26:02;31.67;;;15.10;;
2011;SDS011;1009;51.436;6.972;2023-05-10T06:28:29;33.30;;;15.93;;
2011;SDS011;1009;51.436;6.972;2023-05-10T06:31:00;30.53;;;15.67;;
2011;SDS011;1009;51.436;6.972;2023-05-10T06:33:27;36.67;;;14.57;;
2011;SDS011;1009;51.436;6.972;2023-05-10T06:35:55;33.93;;;15.73;;
2011;SDS011;1009;51.436;6.972;2023-05-10T06:38:22;31.00;;;14.77;;
2011;SDS011;1009;51.436;6.972;2023-05-10T06:40:48;35.07;;;15.40;;
2011;SDS011;1009;51.436;6.972;2023-05-10T06:43:15;36.23;;;16.47;;
2011;SDS011;1009;51.436;6.972;2023-05-10T06:45:42;33.37;;;15.60;;
2011;SDS011;1009;51.436;6.972;2023-05-10T06:48:09;35.53;;;15.30;;
2011;SDS011;1009;51.436;6.972;2023-05-10T06:50:35;36.80;;;15.40;;
2011;SDS011;1009;51.436;6.972;2023-05-10T06:53:03;31.23;;;14.77;;
2011;SDS011;1009;51.436;6.972;2023-05-10T06:55:33;32.27;;;17.20;;
2011;SDS011;1009;51.436;6.972;2023-05-10T06:58:00;44.60;;;16.43;;
2011;SDS011;1009;51.436;6.972;2023-05-10T07:00:27;41.67;;;17.13;;
2011;SDS011;1009;51.436;6.972;2023-05-10T07:02:54;36.23;;;17.20;;
2011;SDS011;1009;51.436;6.972;2023-05-10T07:05:21;38.17;;;16.77;;
2011;SDS011;1009;51.436;6.972;2023-05-10T07:07:47;37.63;;;16.53;;
2011;SDS011;1009;51.436;6.972;2023-05-10T07:10:15;40.23;;;17.50;;
2011;SDS011;1009;51.436;6.972;2023-05-10T07:12:42;39.40;;;17.20;;
2011;SDS011;1009;51.436;6.972;2023-05-10T07:15:09;34.47;;;15.83;;
2011;SDS011;1009;51.436;6.972;2023-05-10T07:17:36;35.30;;;17.07;;
2011;SDS011;1009;51.436;6.972;2023-05-10T07:20:03;40.83;;;18.50;;
2011;SDS011;1009;51.436;6.972;2023-05-10T07:22:30;35.40;;;15.03;;
2011;SDS011;1009;51.436;6.972;2023-05-10T07:24:57;30.40;;;14.07;;
2011;SDS011;1009;51.436;6.972;2023-05-10T07:27:25;37.10;;;17.47;;
2011;SDS011;1009;51.436;6.972;2023-05-10T07:29:52;34.83;;;17.13;;
2011;SDS011;1009;51.436;6.972;2023-05-10T07:32:19;39.23;;;16.50;;
2011;SDS011;1009;51.436;6.972;2023-05-10T07:34:46;44.00;;;15.50;;
2011;SDS011;1009;51.436;6.972;2023-05-10T07:37:15;36.80;;;15.30;;
2011;SDS011;1009;51.436;6.972;2023-05-10T07:39:42;38.17;;;16.77;;
2011;SDS011;1009;51.436;6.972;2023-05-10T07:42:11;40.13;;;17.87;;
2011;SDS011;1009;51.436;6.972;2023-05-10T07:44:40;36.20;;;15.70;;
2011;SDS011;1009;51.436;6.972;2023-05-10T07:47:09;33.10;;;16.27;;
2011;SDS011;1009;51.436;6.972;2023-05-10T07:49:39;31.07;;;15.00;;
2011;SDS011;1009;51.436;6.972;2023-05-10T07:52:06;33.97;;;16.10;;
2011;SDS011;1009;51.436;6.972;2023-05-10T07:54:34;37.60;;;16.43;;
2011;SDS011;1009;51.436;6.972;2023-05-10T07:57:01;32.20;;;15.90;;
2011;SDS011;1009;51.436;6.972;2023-05-10T07:59:31;34.17;;;15.27;;
2011;SDS011;1009;51.436;6.972;2023-05-10T08:01:59;34.80;;;15.67;;
2011;SDS011;1009;51.436;6.972;2023-05-10T08:04:26;30.23;;;15.60;;
2011;SDS011;1009;51.436;6.972;2023-05-10T08:06:53;34.90;;;16.77;;
2011;SDS011;1009;51.436;6.972;2023-05-10T08:09:19;27.83;;;13.33;;
2011;SDS011;1009;51.436;6.972;2023-05-10T08:11:48;27.63;;;12.90;;
2011;SDS011;1009;51.436;6.972;2023-05-10T08:14:15;23.67;;;12.40;;
2011;SDS011;1009;51.436;6.972;2023-05-10T08:16:42;24.83;;;11.47;;
2011;SDS011;1009;51.436;6.972;2023-05-10T08:19:10;25.60;;;12.23;;
2011;SDS011;1009;51.436;6.972;2023-05-10T08:21:37;27.73;;;12.33;;
2011;SDS011;1009;51.436;6.972;2023-05-10T08:24:05;23.47;;;11.63;;
2011;SDS011;1009;51.436;6.972;2023-05-10T08:26:32;30.73;;;12.23;;
2011;SDS011;1009;51.436;6.972;2023-05-10T08:29:05;22.87;;;10.60;;
2011;SDS011;1009;51.436;6.972;2023-05-10T08:31:35;27.20;;;13.70;;
2011;SDS011;1009;51.436;6.972;2023-05-10T08:34:02;30.73;;;13.00;;
2011;SDS011;1009;51.436;6.972;2023-05-10T08:36:30;26.77;;;12.57;;
2011;SDS011;1009;51.436;6.972;2023-05-10T08:38:57;31.40;;;16.23;;
2011;SDS011;1009;51.436;6.972;2023-05-10T08:41:24;27.77;;;14.67;;
2011;SDS011;1009;51.436;6.972;2023-05-10T08:43:52;24.87;;;11.30;;
2011;SDS011;1009;51.436;6.972;2023-05-10T08:46:20;29.97;;;13.20;;
2011;SDS011;1009;51.436;6.972;2023-05-10T08:48:48;26.30;;;13.50;;
2011;SDS011;1009;51.436;6.972;2023-05-10T08:51:17;25.03;;;12.87;;
2011;SDS011;1009;51.436;6.972;2023-05-10T08:53:45;27.93;;;13.30;;
2011;SDS011;1009;51.436;6.972;2023-05-10T08:56:13;23.93;;;10.97;;
2011;SDS011;1009;51.436;6.972;2023-05-10T08:58:40;26.10;;;12.40;;
2011;SDS011;1009;51.436;6.972;2023-05-10T09:01:10;22.60;;;10.57;;
2011;SDS011;1009;51.436;6.972;2023-05-10T09:03:38;31.27;;;12.73;;
2011;SDS011;1009;51.436;6.972;2023-05-10T09:06:06;23.10;;;11.10;;
2011;SDS011;1009;51.436;6.972;2023-05-10T09:08:33;27.53;;;12.37;;
2011;SDS011;1009;51.436;6.972;2023-05-10T09:11:01;29.97;;;13.27;;
2011;SDS011;1009;51.436;6.972;2023-05-10T09:13:28;34.17;;;15.20;;
2011;SDS011;1009;51.436;6.972;2023-05-10T09:15:56;33.40;;;14.40;;
2011;SDS011;1009;51.436;6.972;2023-05-10T09:18:23;33.90;;;15.60;;
2011;SDS011;1009;51.436;6.972;2023-05-10T09:20:50;29.80;;;15.17;;
2011;SDS011;1009;51.436;6.972;2023-05-10T09:23:17;34.87;;;15.57;;
2011;SDS011;1009;51.436;6.972;2023-05-10T09:25:43;31.53;;;15.30;;
2011;SDS011;1009;51.436;6.972;2023-05-10T09:28:12;37.70;;;16.60;;
2011;SDS011;1009;51.436;6.972;2023-05-10T09:30:39;37.90;;;14.80;;
2011;SDS011;1009;51.436;6.972;2023-05-10T09:33:07;34.63;;;14.47;;
2011;SDS011;1009;51.436;6.972;2023-05-10T09:35:34;26.57;;;12.10;;
2011;SDS011;1009;51.436;6.972;2023-05-10T09:38:05;26.93;;;13.73;;
2011;SDS011;1009;51.436;6.972;2023-05-10T09:40:31;32.30;;;14.10;;
2011;SDS011;1009;51.436;6.972;2023-05-10T09:42:59;25.80;;;12.73;;
2011;SDS011;1009;51.436;6.972;2023-05-10T09:45:32;27.00;;;12.80;;
2011;SDS011;1009;51.436;6.972;2023-05-10T09:48:00;26.57;;;13.47;;
2011;SDS011;1009;51.436;6.972;2023-05-10T09:50:28;21.67;;;12.53;;
2011;SDS011;1009;51.436;6.972;2023-05-10T09:52:56;28.90;;;14.00;;
2011;SDS011;1009;51.436;6.972;2023-05-10T09:55:25;30.47;;;14.13;;
2011;SDS011;1009;51.436;6.972;2023-05-10T09:58:03;27.93;;;12.93;;
2011;SDS011;1009;51.436;6.972;2023-05-10T10:00:35;25.10;;;12.90;;
2011;SDS011;1009;51.436;6.972;2023-05-10T10:03:03;21.43;;;11.63;;
2011;SDS011;1009;51.436;6.972;2023-05-10T10:05:31;26.30;;;12.97;;
2011;SDS011;1009;51.436;6.972;2023-05-10T10:07:59;25.07;;;11.70;;
2011;SDS011;1009;51.436;6.972;2023-05-10T10:10:30;21.70;;;12.07;;
2011;SDS011;1009;51.436;6.972;2023-05-10T10:12:58;22.47;;;9.87;;
2011;SDS011;1009;51.436;6.972;2023-05-10T10:15:25;20.77;;;9.60;;
2011;SDS011;1009;51.436;6.972;2023-05-10T10:17:53;20.93;;;10.93;;
2011;SDS011;1009;51.436;6.972;2023-05-10T10:20:21;20.13;;;10.77;;
2011;SDS011;1009;51.436;6.972;2023-05-10T10:22:49;22.03;;;10.90;;
2011;SDS011;1009;51.436;6.972;2023-05-10T10:25:16;20.60;;;10.83;;
2011;SDS011;1009;51.436;6.972;2023-05-10T10:27:45;17.67;;;10.70;;
2011;SDS011;1009;51.436;6.972;2023-05-10T10:30:23;20.17;;;10.93;;
2011;SDS011;1009;51.436;6.972;2023-05-10T10:33:01;17.47;;;9.80;;
2011;SDS011;1009;51.436;6.972;2023-05-10T10:35:39;19.30;;;10.70;;
2011;SDS011;1009;51.436;6.972;2023-05-10T10:38:07;24.07;;;11.83;;
2011;SDS011;1009;51.436;6.972;2023-05-10T10:40:34;19.73;;;11.10;;
2011;SDS011;1009;51.436;6.972;2023-05-10T10:46:09;19.77;;;11.30;;
2011;SDS011;1009;51.436;6.972;2023-05-10T10:48:39;16.50;;;9.23;;
2011;SDS011;1009;51.436;6.972;2023-05-10T10:51:09;22.20;;;9.90;;
2011;SDS011;1009;51.436;6.972;2023-05-10T10:53:36;18.47;;;9.90;;
2011;SDS011;1009;51.436;6.972;2023-05-10T10:56:06;18.37;;;9.47;;
2011;SDS011;1009;51.436;6.972;2023-05-10T10:58:35;19.40;;;9.93;;
2011;SDS011;1009;51.436;6.972;2023-05-10T11:01:09;13.47;;;8.10;;
2011;SDS011;1009;51.436;6.972;2023-05-10T11:03:39;15.43;;;9.07;;
2011;SDS011;1009;51.436;6.972;2023-05-10T11:06:06;17.27;;;8.77;;
2011;SDS011;1009;51.436;6.972;2023-05-10T11:08:34;18.00;;;9.60;;
2011;SDS011;1009;51.436;6.972;2023-05-10T11:11:07;13.67;;;7.80;;
2011;SDS011;1009;51.436;6.972;2023-05-10T11:13:37;18.57;;;9.30;;
2011;SDS011;1009;51.436;6.972;2023-05-10T11:18:53;14.57;;;9.27;;
2011;SDS011;1009;51.436;6.972;2023-05-10T11:21:23;14.77;;;9.37;;
2011;SDS011;1009;51.436;6.972;2023-05-10T11:23:50;12.63;;;8.33;;
2011;SDS011;1009;51.436;6.972;2023-05-10T11:26:21;19.80;;;9.00;;
2011;SDS011;1009;51.436;6.972;2023-05-10T11:28:51;14.37;;;8.30;;
2011;SDS011;1009;51.436;6.972;2023-05-10T11:31:29;18.87;;;10.50;;
2011;SDS011;1009;51.436;6.972;2023-05-10T11:33:58;17.33;;;10.77;;
2011;SDS011;1009;51.436;6.972;2023-05-10T11:36:27;18.37;;;10.20;;
2011;SDS011;1009;51.436;6.972;2023-05-10T11:38:56;13.67;;;9.33;;
2011;SDS011;1009;51.436;6.972;2023-05-10T11:41:23;15.70;;;9.80;;
2011;SDS011;1009;51.436;6.972;2023-05-10T11:43:51;18.80;;;9.90;;
2011;SDS011;1009;51.436;6.972;2023-05-10T11:46:19;18.40;;;10.30;;
2011;SDS011;1009;51.436;6.972;2023-05-10T11:48:47;17.73;;;9.77;;
2011;SDS011;1009;51.436;6.972;2023-05-10T11:51:19;17.10;;;11.10;;
2011;SDS011;1009;51.436;6.972;2023-05-10T11:53:47;17.07;;;10.30;;
2011;SDS011;1009;51.436;6.972;2023-05-10T11:56:15;17.80;;;9.43;;
2011;SDS011;1009;51.436;6.972;2023-05-10T11:58:41;15.33;;;9.53;;
2011;SDS011;1009;51.436;6.972;2023-05-10T12:01:08;14.50;;;8.43;;
2011;SDS011;1009;51.436;6.972;2023-05-10T12:03:36;16.43;;;10.03;;
2011;SDS011;1009;51.436;6.972;2023-05-10T12:06:03;15.20;;;8.53;;
2011;SDS011;1009;51.436;6.972;2023-05-10T12:08:32;10.07;;;7.60;;
2011;SDS011;1009;51.436;6.972;2023-05-10T12:11:10;16.17;;;7.50;;
2011;SDS011;1009;51.436;6.972;2023-05-10T12:13:38;12.40;;;8.00;;
2011;SDS011;1009;51.436;6.972;2023-05-10T12:16:13;12.83;;;8.03;;
2011;SDS011;1009;51.436;6.972;2023-05-10T12:18:41;12.10;;;7.90;;
2011;SDS011;1009;51.436;6.972;2023-05-10T12:21:09;13.13;;;8.07;;
2011;SDS011;1009;51.436;6.972;2023-05-10T12:23:37;14.80;;;9.77;;
2011;SDS011;1009;51.436;6.972;2023-05-10T12:26:05;12.20;;;8.47;;
2011;SDS011;1009;51.436;6.972;2023-05-10T12:28:32;9.87;;;7.30;;
2011;SDS011;1009;51.436;6.972;2023-05-10T12:30:59;11.70;;;7.50;;
2011;SDS011;1009;51.436;6.972;2023-05-10T12:33:27;8.67;;;6.70;;
2011;SDS011;1009;51.436;6.972;2023-05-10T12:36:04;9.80;;;6.60;;
2011;SDS011;1009;51.436;6.972;2023-05-10T12:38:32;7.80;;;6.00;;
2011;SDS011;1009;51.436;6.972;2023-05-10T12:41:02;11.03;;;6.43;;
2011;SDS011;1009;51.436;6.972;2023-05-10T12:43:30;12.47;;;5.40;;
2011;SDS011;1009;51.436;6.972;2023-05-10T12:45:57;7.17;;;4.67;;
2011;SDS011;1009;51.436;6.972;2023-05-10T12:48:24;8.07;;;4.73;;
2011;SDS011;1009;51.436;6.972;2023-05-10T12:50:51;6.70;;;4.77;;
2011;SDS011;1009;51.436;6.972;2023-05-10T12:53:17;6.60;;;4.50;;
2011;SDS011;1009;51.436;6.972;2023-05-10T12:55:44;5.20;;;3.70;;
2011;SDS011;1009;51.436;6.972;2023-05-10T12:58:12;5.20;;;3.53;;
2011;SDS011;1009;51.436;6.972;2023-05-10T13:00:39;5.20;;;3.90;;
2011;SDS011;1009;51.436;6.972;2023-05-10T13:03:06;6.07;;;3.73;;
2011;SDS011;1009;51.436;6.972;2023-05-10T13:05:33;6.00;;;3.97;;
2011;SDS011;1009;51.436;6.972;2023-05-10T13:08:00;4.70;;;3.60;;
2011;SDS011;1009;51.436;6.972;2023-05-10T13:10:27;6.70;;;4.87;;
2011;SDS011;1009;51.436;6.972;2023-05-10T13:12:55;5.17;;;3.60;;
2011;SDS011;1009;51.436;6.972;2023-05-10T13:15:23;6.20;;;4.47;;
2011;SDS011;1009;51.436;6.972;2023-05-10T13:17:50;6.97;;;4.50;;
2011;SDS011;1009;51.436;6.972;2023-05-10T13:20:17;5.80;;;3.80;;
2011;SDS011;1009;51.436;6.972;2023-05-10T13:22:44;4.53;;;3.57;;
2011;SDS011;1009;51.436;6.972;2023-05-10T13:25:11;6.83;;;4.47;;
2011;SDS011;1009;51.436;6.972;2023-05-10T13:27:38;5.20;;;4.40;;
2011;SDS011;1009;51.436;6.972;2023-05-10T13:30:06;7.27;;;5.20;;
2011;SDS011;1009;51.436;6.972;2023-05-10T13:32:40;6.87;;;4.70;;
2011;SDS011;1009;51.436;6.972;2023-05-10T13:35:07;5.33;;;3.87;;
2011;SDS011;1009;51.436;6.972;2023-05-10T13:37:34;8.00;;;5.37;;
2011;SDS011;1009;51.436;6.972;2023-05-10T13:40:02;5.80;;;3.80;;
2011;SDS011;1009;51.436;6.972;2023-05-10T13:42:30;7.60;;;4.00;;
2011;SDS011;1009;51.436;6.972;2023-05-10T13:44:59;5.93;;;4.20;;
2011;SDS011;1009;51.436;6.972;2023-05-10T13:47:26;6.40;;;4.40;;
2011;SDS011;1009;51.436;6.972;2023-05-10T13:49:54;7.90;;;5.13;;
2011;SDS011;1009;51.436;6.972;2023-05-10T13:52:22;4.53;;;3.70;;
2011;SDS011;1009;51.436;6.972;2023-05-10T13:54:49;6.73;;;5.20;;
2011;SDS011;1009;51.436;6.972;2023-05-10T13:57:17;7.47;;;5.00;;
2011;SDS011;1009;51.436;6.972;2023-05-10T13:59:44;5.27;;;4.03;;
2011;SDS011;1009;51.436;6.972;2023-05-10T14:02:10;6.63;;;4.00;;
2011;SDS011;1009;51.436;6.972;2023-05-10T14:04:38;6.30;;;4.23;;
2011;SDS011;1009;51.436;6.972;2023-05-10T14:07:06;5.90;;;3.50;;
2011;SDS011;1009;51.436;6.972;2023-05-10T14:09:32;4.87;;;3.20;;
2011;SDS011;1009;51.436;6.972;2023-05-10T14:11:59;3.57;;;2.60;;
2011;SDS011;1009;51.436;6.972;2023-05-10T14:14:27;6.23;;;3.93;;
2011;SDS011;1009;51.436;6.972;2023-05-10T14:16:56;4.40;;;3.17;;
2011;SDS011;1009;51.436;6.972;2023-05-10T14:19:24;3.80;;;3.40;;
2011;SDS011;1009;51.436;6.972;2023-05-10T14:21:51;8.07;;;5.97;;
2011;SDS011;1009;51.436;6.972;2023-05-10T14:24:20;6.00;;;4.73;;
2011;SDS011;1009;51.436;6.972;2023-05-10T14:26:46;9.37;;;6.60;;
2011;SDS011;1009;51.436;6.972;2023-05-10T14:29:13;6.43;;;5.17;;
2011;SDS011;1009;51.436;6.972;2023-05-10T14:31:40;7.70;;;5.53;;
2011;SDS011;1009;51.436;6.972;2023-05-10T14:34:07;9.17;;;7.07;;
2011;SDS011;1009;51.436;6.972;2023-05-10T14:36:34;5.90;;;5.00;;
2011;SDS011;1009;51.436;6.972;2023-05-10T14:39:00;12.77;;;6.67;;
2011;SDS011;1009;51.436;6.972;2023-05-10T14:41:29;10.17;;;7.63;;
2011;SDS011;1009;51.436;6.972;2023-05-10T14:43:56;8.10;;;6.43;;
2011;SDS011;1009;51.436;6.972;2023-05-10T14:46:23;8.10;;;6.07;;
2011;SDS011;1009;51.436;6.972;2023-05-10T14:48:49;7.27;;;5.87;;
2011;SDS011;1009;51.436;6.972;2023-05-10T14:51:16;7.17;;;5.77;;
2011;SDS011;1009;51.436;6.972;2023-05-10T14:53:46;9.03;;;6.47;;
2011;SDS011;1009;51.436;6.972;2023-05-10T14:56:13;9.70;;;6.57;;
2011;SDS011;1009;51.436;6.972;2023-05-10T14:58:41;6.03;;;5.27;;
2011;SDS011;1009;51.436;6.972;2023-05-10T15:01:08;10.47;;;7.00;;
2011;SDS011;1009;51.436;6.972;2023-05-10T15:03:35;7.00;;;5.40;;
2011;SDS011;1009;51.436;6.972;2023-05-10T15:06:01;6.87;;;6.03;;
2011;SDS011;1009;51.436;6.972;2023-05-10T15:08:29;9.07;;;6.03;;
2011;SDS011;1009;51.436;6.972;2023-05-10T15:10:56;11.97;;;7.80;;